KMKO/MKO METAR and TAF weather

Enter ICAO airport designator
Station Type Date Time Source
KMKO METAR 2019/04/25 11:53 UTC NOAA

KMKO 251153Z AUTO 33003KT 1 1/2SM +RA BR FEW004 BKN034 OVC060 14/14 A2979 RMK AO2 SLP082 P0035 60096 70096 T01440144 10161 20144 53011


Station Type Date Time Source
KMKO Decoded METAR 2019/04/25 11:53 UTC NOAA

MUSKOGEE DAVIS FIELD, OK, United States (KMKO) 35-39N 95-22W 185M
Apr 25, 2019 - 07:53 AM EDT / 2019.04.25 1153 UTC
Wind: from the NNW (330 degrees) at 3 MPH (3 KT):0
Visibility: 1 1/2 mile(s):0
Sky conditions: overcast
Weather: heavy rain; mist
Precipitation last hour: 0.35 inches
Temperature: 57.9 F (14.4 C)
Dew Point: 57.9 F (14.4 C)
Relative Humidity: 100%
Pressure (altimeter): 29.79 in. Hg (1008 hPa)
Pressure tendency: 0.03 inches (1.1 hPa) higher than three hours ago
ob: KMKO 251153Z AUTO 33003KT 1 1/2SM +RA BR FEW004 BKN034 OVC060 14/14 A2979 RMK AO2 SLP082 P0035 60096 70096 T01440144 10161 20144 53011
cycle: 12

Station Type Date Time Source
KMKO TAF UTC NOAA

Error!

Example: see airport list